Time;durP1;ratioP1;P1;durP2;ratioP2;P2;SDS_P1;SDS_P2;PMS_P1;PMS_P2;Temp;Humidity;BMP_temperature;BMP_pressure;BME280_temperature;BME280_humidity;BME280_pressure;Samples;Min_cycle;Max_cycle;Signal;HPM_P1;HPM_P2
2022/01/09 00:00:37;;;;;;;0.77;0.70;;;;;;;;;;5016781;28;20684;-86
2022/01/09 00:03:04;;;;;;;0.63;0.50;;;;;;;;;;5023479;28;20255;-84
2022/01/09 00:05:31;;;;;;;0.60;0.50;;;;;;;;;;5019465;28;20205;-85
2022/01/09 00:08:00;;;;;;;0.52;0.50;;;;;;;;;;5025135;28;20674;-84
2022/01/09 00:10:29;;;;;;;0.77;0.50;;;;;;;;;;5020374;28;20749;-85
2022/01/09 00:12:58;;;;;;;0.95;0.68;;;;;;;;;;5022742;28;20212;-87
2022/01/09 00:15:25;;;;;;;1.15;0.52;;;3.90;99.90;;;;;;5018009;28;20287;-86
2022/01/09 00:17:53;;;;;;;0.60;0.60;;;;;;;;;;5018131;28;20324;-86
2022/01/09 00:20:21;;;;;;;0.70;0.68;;;;;;;;;;5020124;28;20289;-85
2022/01/09 00:22:50;;;;;;;0.68;0.68;;;;;;;;;;5017041;28;20205;-85
2022/01/09 00:25:20;;;;;;;0.70;0.50;;;4.00;99.90;;;;;;5024919;28;20208;-84
2022/01/09 00:27:48;;;;;;;0.60;0.40;;;;;;;;;;5021626;28;20239;-84
2022/01/09 00:30:17;;;;;;;0.73;0.60;;;3.90;99.90;;;;;;5025081;28;20205;-85
2022/01/09 00:32:44;;;;;;;2.10;0.55;;;;;;;;;;5023287;28;20260;-84
2022/01/09 00:35:12;;;;;;;0.55;0.52;;;4.00;99.90;;;;;;5021200;28;20205;-83
2022/01/09 00:37:39;;;;;;;0.40;0.30;;;4.00;99.90;;;;;;5023953;28;20652;-82
2022/01/09 00:40:09;;;;;;;0.90;0.40;;;4.00;99.90;;;;;;5022747;28;20232;-82
2022/01/09 00:42:38;;;;;;;0.80;0.45;;;;;;;;;;5022363;28;20263;-82
2022/01/09 00:45:06;;;;;;;0.52;0.40;;;;;;;;;;5016905;28;20287;-83
2022/01/09 00:47:33;;;;;;;0.63;0.57;;;;;;;;;;5017596;28;20204;-82
2022/01/09 00:50:00;;;;;;;0.60;0.38;;;;;;;;;;5019229;28;20209;-83
2022/01/09 00:52:27;;;;;;;0.50;0.47;;;;;;;;;;5017854;28;20288;-83
2022/01/09 00:54:55;;;;;;;0.50;0.40;;;;;;;;;;5017430;28;20208;-83
2022/01/09 00:57:22;;;;;;;0.60;0.35;;;;;;;;;;5020049;28;20219;-83
2022/01/09 00:59:51;;;;;;;0.68;0.30;;;;;;;;;;5020559;28;20306;-83
2022/01/09 01:02:18;;;;;;;0.50;0.30;;;;;;;;;;5024275;28;20294;-84
2022/01/09 01:04:51;;;;;;;0.30;0.30;;;;;;;;;;5019611;28;20213;-84
2022/01/09 01:07:20;;;;;;;0.30;0.30;;;;;;;;;;5016287;28;20197;-84
2022/01/09 01:09:51;;;;;;;0.40;0.30;;;;;;;;;;5020015;28;20212;-84
2022/01/09 01:12:19;;;;;;;0.30;0.20;;;;;;;;;;5017018;28;20292;-84
2022/01/09 01:14:47;;;;;;;2.45;0.60;;;;;;;;;;5024418;28;20219;-83
2022/01/09 01:17:16;;;;;;;0.40;0.30;;;;;;;;;;5020530;28;20216;-83
2022/01/09 01:19:44;;;;;;;0.55;0.35;;;;;;;;;;5014413;28;20217;-84
2022/01/09 01:22:12;;;;;;;0.30;0.30;;;;;;;;;;5020359;28;20228;-84
2022/01/09 01:24:40;;;;;;;0.40;0.32;;;;;;;;;;5019171;28;20204;-83
2022/01/09 01:27:09;;;;;;;0.85;0.50;;;;;;;;;;5016674;28;20289;-84
2022/01/09 01:29:37;;;;;;;0.40;0.40;;;;;;;;;;5022047;28;20283;-84
2022/01/09 01:32:06;;;;;;;0.40;0.30;;;3.90;99.90;;;;;;5018807;28;20574;-84
2022/01/09 01:34:34;;;;;;;0.43;0.30;;;;;;;;;;5016377;28;20213;-84
2022/01/09 01:37:02;;;;;;;0.40;0.30;;;;;;;;;;5018324;28;20200;-84
2022/01/09 01:39:29;;;;;;;0.43;0.43;;;;;;;;;;5023197;28;20204;-85
2022/01/09 01:42:09;;;;;;;0.40;0.32;;;3.90;99.90;;;;;;5023508;28;20255;-85
2022/01/09 01:44:52;;;;;;;0.40;0.30;;;3.90;99.90;;;;;;5010258;28;20557;-85
2022/01/09 01:47:25;;;;;;;0.30;0.20;;;;;;;;;;5018397;28;20204;-85
2022/01/09 01:50:19;;;;;;;0.30;0.20;;;;;;;;;;5014357;28;20268;-85
2022/01/09 01:52:49;;;;;;;0.43;0.38;;;;;;;;;;5021330;28;20212;-83
2022/01/09 01:55:26;;;;;;;0.30;0.30;;;4.00;99.90;;;;;;5019279;28;20994;-83
2022/01/09 01:57:53;;;;;;;0.30;0.20;;;3.60;99.90;;;;;;5019308;28;20686;-84
2022/01/09 02:00:20;;;;;;;0.30;0.20;;;;;;;;;;5021873;28;20208;-84
2022/01/09 02:02:47;;;;;;;0.30;0.20;;;;;;;;;;5017850;28;20698;-83
2022/01/09 02:05:20;;;;;;;0.30;0.20;;;4.00;99.90;;;;;;5021921;28;20250;-83
2022/01/09 02:07:49;;;;;;;0.30;0.20;;;;;;;;;;5016109;28;20201;-83
2022/01/09 02:10:24;;;;;;;0.40;0.30;;;;;;;;;;5020097;28;20214;-83
2022/01/09 02:12:56;;;;;;;0.40;0.30;;;;;;;;;;5019443;28;20209;-81
2022/01/09 02:15:31;;;;;;;0.40;0.38;;;4.00;99.90;;;;;;5019670;28;20625;-82
2022/01/09 02:17:58;;;;;;;0.30;0.22;;;;;;;;;;5012207;28;20704;-82
2022/01/09 02:20:27;;;;;;;0.35;0.30;;;;;;;;;;5021833;28;20746;-81
2022/01/09 02:22:55;;;;;;;0.30;0.20;;;;;;;;;;5016337;28;20233;-82
2022/01/09 02:25:26;;;;;;;0.30;0.20;;;;;;;;;;5016183;28;20202;-82
2022/01/09 02:27:53;;;;;;;0.40;0.20;;;;;;;;;;5019489;28;20315;-83
2022/01/09 02:30:21;;;;;;;0.50;0.30;;;;;;;;;;5019530;28;20219;-83
2022/01/09 02:32:48;;;;;;;0.40;0.20;;;;;;;;;;5018929;28;20272;-83
2022/01/09 02:35:16;;;;;;;0.30;0.20;;;;;;;;;;5020866;28;20236;-83
2022/01/09 02:37:44;;;;;;;0.40;0.30;;;;;;;;;;5015480;28;20209;-83
2022/01/09 02:40:12;;;;;;;0.40;0.30;;;;;;;;;;5022092;28;20205;-83
2022/01/09 02:42:40;;;;;;;0.50;0.50;;;;;;;;;;5014790;28;20438;-83
2022/01/09 02:45:19;;;;;;;0.40;0.40;;;;;;;;;;5022376;28;20216;-83
2022/01/09 02:47:47;;;;;;;0.70;0.50;;;;;;;;;;5018255;28;20295;-83
2022/01/09 02:50:29;;;;;;;0.40;0.40;;;;;;;;;;5020627;28;20209;-83
2022/01/09 02:53:12;;;;;;;0.50;0.38;;;;;;;;;;5019151;28;20208;-83
2022/01/09 02:55:40;;;;;;;0.43;0.30;;;3.80;99.90;;;;;;5025327;28;20258;-83
2022/01/09 02:58:07;;;;;;;0.40;0.40;;;;;;;;;;5022602;28;20208;-84
2022/01/09 03:00:43;;;;;;;0.52;0.40;;;3.70;99.90;;;;;;5026824;28;20570;-84
2022/01/09 03:03:10;;;;;;;0.45;0.35;;;;;;;;;;5025285;28;20286;-84
2022/01/09 03:05:37;;;;;;;1.05;0.50;;;;;;;;;;5023153;28;20689;-83
2022/01/09 03:08:07;;;;;;;0.40;0.30;;;3.60;99.90;;;;;;5025518;28;20220;-84
2022/01/09 03:10:34;;;;;;;0.75;0.30;;;;;;;;;;5024235;28;20205;-83
2022/01/09 03:13:03;;;;;;;0.52;0.30;;;;;;;;;;5018494;28;20205;-83
2022/01/09 03:15:31;;;;;;;0.40;0.30;;;;;;;;;;5022876;28;20205;-83
2022/01/09 03:17:58;;;;;;;0.30;0.30;;;;;;;;;;5024836;28;20220;-84
2022/01/09 03:20:27;;;;;;;0.30;0.30;;;3.70;99.90;;;;;;5020468;28;20272;-84
2022/01/09 03:22:55;;;;;;;0.30;0.20;;;3.70;99.90;;;;;;5019599;28;20315;-83
2022/01/09 03:25:24;;;;;;;0.52;0.40;;;3.80;99.90;;;;;;5023402;28;20217;-84
2022/01/09 03:27:51;;;;;;;0.30;0.30;;;;;;;;;;5018605;28;20299;-84
2022/01/09 03:30:20;;;;;;;0.40;0.40;;;3.80;99.90;;;;;;5021176;28;20216;-84
2022/01/09 03:32:50;;;;;;;0.30;0.20;;;3.40;99.90;;;;;;5018883;28;20296;-84
2022/01/09 03:35:20;;;;;;;0.70;0.70;;;3.80;99.90;;;;;;5019612;28;20240;-84
2022/01/09 03:37:48;;;;;;;0.30;0.25;;;3.90;99.90;;;;;;5015873;28;20393;-84
2022/01/09 03:40:18;;;;;;;0.50;0.30;;;3.90;99.90;;;;;;5023146;28;20563;-84
2022/01/09 03:42:47;;;;;;;0.30;0.30;;;;;;;;;;5019853;28;20236;-84
2022/01/09 03:45:15;;;;;;;0.30;0.20;;;4.50;99.90;;;;;;5024661;28;20878;-84
2022/01/09 03:47:42;;;;;;;0.40;0.40;;;;;;;;;;5020739;28;20268;-85
2022/01/09 03:50:12;;;;;;;0.40;0.30;;;3.90;99.90;;;;;;5017962;28;20611;-84
2022/01/09 03:52:40;;;;;;;0.43;0.43;;;3.80;99.90;;;;;;5019396;28;20197;-84
2022/01/09 03:55:09;;;;;;;0.60;0.40;;;;;;;;;;5023027;28;20271;-84
2022/01/09 03:57:36;;;;;;;1.40;0.63;;;;;;;;;;5021182;28;20232;-84
2022/01/09 04:00:06;;;;;;;0.35;0.35;;;3.90;99.90;;;;;;5019867;28;20323;-84
2022/01/09 04:02:35;;;;;;;0.30;0.30;;;;;;;;;;5022656;28;20298;-85
2022/01/09 04:05:02;;;;;;;0.30;0.30;;;;;;;;;;5023899;28;20291;-85
2022/01/09 04:07:30;;;;;;;0.60;0.50;;;;;;;;;;5022806;28;20243;-85
2022/01/09 04:09:57;;;;;;;0.57;0.57;;;;;;;;;;5021836;28;20209;-85
2022/01/09 04:12:33;;;;;;;0.40;0.30;;;;;;;;;;5021717;28;20291;-85
2022/01/09 04:15:05;;;;;;;0.50;0.30;;;4.90;99.90;;;;;;5020608;28;20196;-85
2022/01/09 04:17:51;;;;;;;0.38;0.38;;;3.90;99.90;;;;;;5020093;28;20220;-85
2022/01/09 04:20:19;;;;;;;0.30;0.30;;;;;;;;;;5021688;28;20578;-85
2022/01/09 04:22:47;;;;;;;0.40;0.30;;;;;;;;;;5025377;28;20303;-85
2022/01/09 04:25:14;;;;;;;0.40;0.30;;;;;;;;;;5023437;28;20204;-82
2022/01/09 04:27:42;;;;;;;0.40;0.32;;;3.90;99.90;;;;;;5023276;28;20204;-85
2022/01/09 04:30:12;;;;;;;3.05;0.60;;;3.80;99.90;;;;;;5023475;28;20380;-85
2022/01/09 04:32:39;;;;;;;0.40;0.40;;;;;;;;;;5016975;28;20789;-85
2022/01/09 04:35:07;;;;;;;0.40;0.40;;;3.90;99.90;;;;;;5018367;28;20288;-85
2022/01/09 04:37:36;;;;;;;0.40;0.40;;;;;;;;;;5018938;28;20295;-85
2022/01/09 04:40:04;;;;;;;0.40;0.40;;;4.00;99.90;;;;;;5028163;28;20212;-85
2022/01/09 04:42:38;;;;;;;0.50;0.40;;;;;;;;;;5021951;28;20225;-85
2022/01/09 04:45:06;;;;;;;0.30;0.30;;;;;;;;;;5021612;28;20211;-84
2022/01/09 04:47:35;;;;;;;0.40;0.20;;;;;;;;;;5018389;28;20214;-81
2022/01/09 04:50:02;;;;;;;0.60;0.35;;;;;;;;;;5022566;28;20271;-83
2022/01/09 04:52:33;;;;;;;0.30;0.30;;;;;;;;;;5020486;28;20208;-83
2022/01/09 04:55:00;;;;;;;0.30;0.30;;;;;;;;;;5017304;28;20599;-82
2022/01/09 04:57:27;;;;;;;0.50;0.30;;;;;;;;;;5022678;28;20244;-83
2022/01/09 04:59:55;;;;;;;0.30;0.30;;;;;;;;;;5018171;28;20233;-83
2022/01/09 05:02:22;;;;;;;0.30;0.30;;;;;;;;;;5017198;28;20217;-83
2022/01/09 05:04:50;;;;;;;0.40;0.20;;;;;;;;;;5020423;28;20210;-83
2022/01/09 05:07:18;;;;;;;0.30;0.20;;;;;;;;;;5018046;28;20209;-84
2022/01/09 05:09:45;;;;;;;0.30;0.30;;;;;;;;;;5021991;28;20204;-83
2022/01/09 05:12:12;;;;;;;0.30;0.20;;;;;;;;;;5020030;28;20250;-81
2022/01/09 05:14:39;;;;;;;0.57;0.20;;;;;;;;;;5016729;28;20256;-83
2022/01/09 05:17:07;;;;;;;0.43;0.22;;;;;;;;;;5017394;28;20731;-82
2022/01/09 05:19:35;;;;;;;0.30;0.20;;;;;;;;;;5019199;28;20296;-82
2022/01/09 05:22:05;;;;;;;0.30;0.20;;;;;;;;;;5020768;28;20225;-81
2022/01/09 05:24:33;;;;;;;0.30;0.20;;;;;;;;;;5024041;28;20213;-81
2022/01/09 05:27:00;;;;;;;0.65;0.38;;;;;;;;;;5018791;28;20232;-82
2022/01/09 05:29:27;;;;;;;0.30;0.30;;;;;;;;;;5016906;28;20247;-81
2022/01/09 05:31:54;;;;;;;0.60;0.52;;;;;;;;;;5016382;28;20679;-82
2022/01/09 05:34:21;;;;;;;0.52;0.52;;;;;;;;;;5018812;28;20641;-81
2022/01/09 05:36:49;;;;;;;0.30;0.20;;;;;;;;;;5019585;28;20212;-82
2022/01/09 05:39:17;;;;;;;0.60;0.45;;;;;;;;;;5019332;28;20267;-82
2022/01/09 05:41:45;;;;;;;0.30;0.20;;;2.70;99.90;;;;;;5020156;28;20290;-81
2022/01/09 05:44:13;;;;;;;0.40;0.20;;;;;;;;;;5021645;28;20208;-82
2022/01/09 05:46:40;;;;;;;0.30;0.20;;;;;;;;;;5019273;28;20217;-82
2022/01/09 05:49:07;;;;;;;0.50;0.40;;;;;;;;;;5018036;28;20243;-82
2022/01/09 05:51:34;;;;;;;2.38;0.55;;;;;;;;;;5016347;28;20291;-80
2022/01/09 05:54:01;;;;;;;0.40;0.20;;;;;;;;;;5019086;28;20288;-82
2022/01/09 05:56:30;;;;;;;1.50;0.70;;;;;;;;;;5019039;28;20208;-82
2022/01/09 05:58:57;;;;;;;0.30;0.20;;;;;;;;;;5016422;28;20274;-82
2022/01/09 06:01:24;;;;;;;1.13;0.40;;;;;;;;;;5017464;28;20727;-82
2022/01/09 06:03:51;;;;;;;0.30;0.28;;;;;;;;;;5019902;28;20316;-82
2022/01/09 06:06:18;;;;;;;0.40;0.30;;;;;;;;;;5018815;28;20213;-82
2022/01/09 06:08:46;;;;;;;0.47;0.47;;;;;;;;;;5012617;28;20331;-81
2022/01/09 06:11:13;;;;;;;0.40;0.22;;;;;;;;;;5019781;28;20243;-82
2022/01/09 06:13:42;;;;;;;0.40;0.30;;;;;;;;;;5019308;28;20295;-81
2022/01/09 06:16:09;;;;;;;0.40;0.30;;;;;;;;;;5023419;28;20278;-81
2022/01/09 06:18:36;;;;;;;0.50;0.40;;;;;;;;;;5019123;28;20276;-81
2022/01/09 06:21:04;;;;;;;0.50;0.40;;;;;;;;;;5021570;28;20236;-81
2022/01/09 06:23:31;;;;;;;1.10;1.00;;;;;;;;;;5021005;28;20752;-81
2022/01/09 06:25:58;;;;;;;1.60;0.68;;;;;;;;;;5017019;28;20228;-82
2022/01/09 06:28:25;;;;;;;0.40;0.30;;;;;;;;;;5022641;28;20308;-82
2022/01/09 06:30:54;;;;;;;0.60;0.55;;;;;;;;;;5021173;28;20575;-81
2022/01/09 06:33:21;;;;;;;0.40;0.40;;;;;;;;;;5025098;28;20650;-81
2022/01/09 06:35:48;;;;;;;0.60;0.40;;;;;;;;;;5027996;28;20643;-82
2022/01/09 06:38:15;;;;;;;1.25;0.47;;;;;;;;;;5021936;28;20247;-81
2022/01/09 06:40:43;;;;;;;1.10;0.35;;;;;;;;;;5022585;28;20696;-81
2022/01/09 06:43:12;;;;;;;0.50;0.40;;;;;;;;;;5018516;28;20221;-81
2022/01/09 06:45:40;;;;;;;0.40;0.30;;;;;;;;;;5024927;28;20208;-82
2022/01/09 06:48:10;;;;;;;0.40;0.30;;;;;;;;;;5024501;28;20285;-81
2022/01/09 06:50:38;;;;;;;0.40;0.40;;;;;;;;;;5018371;28;20208;-81
2022/01/09 06:53:05;;;;;;;0.30;0.30;;;;;;;;;;5020341;28;20213;-81
2022/01/09 06:55:33;;;;;;;0.40;0.22;;;;;;;;;;5024321;28;20208;-81
2022/01/09 06:58:00;;;;;;;0.60;0.38;;;;;;;;;;5023025;28;20748;-80
2022/01/09 07:00:27;;;;;;;0.57;0.30;;;;;;;;;;5019305;28;20220;-81
2022/01/09 07:02:54;;;;;;;0.38;0.38;;;;;;;;;;5026157;28;20316;-81
2022/01/09 07:05:23;;;;;;;0.50;0.50;;;;;;;;;;5023828;28;20209;-82
2022/01/09 07:07:50;;;;;;;0.65;0.60;;;;;;;;;;5019351;28;20211;-81
2022/01/09 07:10:18;;;;;;;0.50;0.50;;;;;;;;;;5022024;28;20706;-81
2022/01/09 07:12:45;;;;;;;0.30;0.30;;;;;;;;;;5022968;28;20205;-81
2022/01/09 07:15:12;;;;;;;0.50;0.40;;;;;;;;;;5021621;28;20212;-81
2022/01/09 07:17:40;;;;;;;0.40;0.40;;;;;;;;;;5018094;28;20217;-81
2022/01/09 07:20:08;;;;;;;1.58;1.02;;;2.30;99.90;;;;;;5022729;28;20219;-81
2022/01/09 07:22:37;;;;;;;0.43;0.43;;;;;;;;;;5010715;28;20229;-81
2022/01/09 07:25:05;;;;;;;0.70;0.60;;;;;;;;;;5021061;28;20209;-81
2022/01/09 07:27:33;;;;;;;1.58;0.77;;;;;;;;;;5016870;28;20206;-81
2022/01/09 07:30:00;;;;;;;1.00;0.90;;;;;;;;;;5023276;28;20213;-80
2022/01/09 07:32:28;;;;;;;1.48;1.20;;;;;;;;;;5015508;28;20747;-81
2022/01/09 07:34:57;;;;;;;0.60;0.50;;;;;;;;;;5018273;28;20630;-81
2022/01/09 07:37:25;;;;;;;0.82;0.63;;;;;;;;;;5022094;28;20662;-80
2022/01/09 07:39:54;;;;;;;0.90;0.88;;;2.40;99.90;;;;;;5021767;28;20197;-81
2022/01/09 07:42:21;;;;;;;1.20;1.00;;;;;;;;;;5015270;28;20231;-80
2022/01/09 07:44:48;;;;;;;1.33;0.90;;;;;;;;;;5025195;28;20555;-81
2022/01/09 07:47:15;;;;;;;1.65;1.10;;;;;;;;;;5020917;28;20299;-81
2022/01/09 07:49:43;;;;;;;0.90;0.90;;;;;;;;;;5019652;28;20213;-81
2022/01/09 07:52:10;;;;;;;3.83;1.52;;;;;;;;;;5022807;28;20202;-81
2022/01/09 07:54:37;;;;;;;1.88;1.13;;;;;;;;;;5019424;28;20725;-81
2022/01/09 07:57:06;;;;;;;4.13;1.40;;;;;;;;;;5022244;28;20286;-81
2022/01/09 07:59:34;;;;;;;2.90;1.50;;;;;;;;;;5025480;28;20205;-81
2022/01/09 08:02:01;;;;;;;5.25;2.00;;;;;;;;;;5019313;28;20251;-81
2022/01/09 08:04:28;;;;;;;3.25;1.38;;;;;;;;;;5021597;28;20325;-81
2022/01/09 08:06:55;;;;;;;1.30;1.20;;;;;;;;;;5022179;28;20205;-84
2022/01/09 08:09:22;;;;;;;2.75;1.40;;;;;;;;;;5023856;28;20213;-84
2022/01/09 08:11:50;;;;;;;1.48;1.10;;;2.60;99.90;;;;;;5022357;28;20221;-83
2022/01/09 08:14:18;;;;;;;7.50;1.42;;;;;;;;;;5021663;28;20239;-84
2022/01/09 08:16:45;;;;;;;4.38;1.67;;;;;;;;;;5013688;28;20255;-84
2022/01/09 08:19:13;;;;;;;2.72;1.30;;;;;;;;;;5017386;28;20216;-84
2022/01/09 08:21:40;;;;;;;2.80;1.92;;;;;;;;;;5021613;28;20904;-84
2022/01/09 08:24:07;;;;;;;3.95;1.40;;;;;;;;;;5018430;28;20221;-84
2022/01/09 08:26:35;;;;;;;3.65;1.38;;;;;;;;;;5018213;28;20658;-84
2022/01/09 08:29:02;;;;;;;2.40;1.73;;;;;;;;;;5022932;28;20274;-84
2022/01/09 08:31:31;;;;;;;4.50;1.30;;;;;;;;;;5022762;28;20681;-84
2022/01/09 08:33:58;;;;;;;3.75;1.40;;;;;;;;;;5021174;28;20249;-83
2022/01/09 08:36:25;;;;;;;1.05;0.95;;;;;;;;;;5022477;28;20209;-84
2022/01/09 08:38:52;;;;;;;1.73;1.30;;;;;;;;;;5018564;28;20216;-85
2022/01/09 08:41:20;;;;;;;1.02;0.80;;;;;;;;;;5022963;28;20215;-85
2022/01/09 08:43:47;;;;;;;1.30;1.20;;;;;;;;;;5020312;28;20571;-85
2022/01/09 08:46:15;;;;;;;1.90;1.45;;;;;;;;;;5020042;28;20205;-85
2022/01/09 08:48:44;;;;;;;1.80;1.40;;;;;;;;;;5018211;28;20210;-85
2022/01/09 08:51:12;;;;;;;7.05;2.47;;;;;;;;;;5019241;28;20200;-85
2022/01/09 08:53:39;;;;;;;7.50;1.40;;;;;;;;;;5015182;28;20201;-85
2022/01/09 08:56:07;;;;;;;2.47;1.60;;;2.70;99.90;;;;;;5020663;28;20219;-85
2022/01/09 08:58:34;;;;;;;4.85;1.90;;;;;;;;;;5017647;28;20209;-86
2022/01/09 09:01:02;;;;;;;3.38;1.63;;;;;;;;;;5020252;28;20300;-86
2022/01/09 09:03:29;;;;;;;6.78;1.30;;;;;;;;;;5019739;28;20316;-86
2022/01/09 09:05:58;;;;;;;4.90;1.60;;;;;;;;;;5016856;28;20208;-86
2022/01/09 09:08:25;;;;;;;4.05;1.52;;;;;;;;;;5023210;28;20517;-87
2022/01/09 09:10:53;;;;;;;3.47;2.17;;;;;;;;;;5024630;28;20204;-87
2022/01/09 09:13:20;;;;;;;10.25;1.35;;;;;;;;;;5016249;28;20294;-86
2022/01/09 09:15:47;;;;;;;3.88;2.25;;;;;;;;;;5017802;28;20359;-86
2022/01/09 09:18:14;;;;;;;3.30;2.70;;;;;;;;;;5014046;28;20783;-86
2022/01/09 09:20:44;;;;;;;6.63;2.00;;;;;;;;;;5014517;28;20628;-86
2022/01/09 09:23:12;;;;;;;7.50;2.00;;;;;;;;;;5018212;28;20607;-87
2022/01/09 09:25:40;;;;;;;3.67;2.20;;;;;;;;;;5014980;28;20220;-87
2022/01/09 09:28:07;;;;;;;2.88;2.10;;;;;;;;;;5019661;28;20213;-87
2022/01/09 09:30:34;;;;;;;3.30;1.52;;;;;;;;;;5022490;28;20217;-86
2022/01/09 09:33:02;;;;;;;5.47;2.25;;;;;;;;;;5012700;28;20227;-86
2022/01/09 09:35:30;;;;;;;4.68;1.80;;;;;;;;;;5017491;28;20255;-86
2022/01/09 09:37:57;;;;;;;6.63;1.77;;;;;;;;;;5018996;28;20205;-86
2022/01/09 09:40:26;;;;;;;2.00;1.90;;;;;;;;;;5023701;28;20933;-86
2022/01/09 09:42:53;;;;;;;5.80;1.73;;;;;;;;;;5017400;28;20232;-86
2022/01/09 09:45:23;;;;;;;1.70;1.60;;;3.40;99.90;;;;;;5017735;28;20594;-87
2022/01/09 09:47:51;;;;;;;2.47;1.20;;;3.40;99.90;;;;;;5017858;28;20225;-87
2022/01/09 09:50:20;;;;;;;4.18;2.05;;;3.40;99.90;;;;;;5023258;28;20204;-86
2022/01/09 09:52:48;;;;;;;2.22;1.67;;;3.40;99.90;;;;;;5017464;28;20216;-86
2022/01/09 09:55:16;;;;;;;3.42;1.25;;;3.50;99.90;;;;;;5017010;28;20209;-87
2022/01/09 09:57:45;;;;;;;1.67;1.25;;;;;;;;;;5023206;28;20262;-87
2022/01/09 10:00:14;;;;;;;3.17;1.55;;;3.50;99.90;;;;;;5016836;28;20255;-87
2022/01/09 10:02:42;;;;;;;2.15;1.95;;;;;;;;;;5023460;28;20566;-87
2022/01/09 10:05:10;;;;;;;6.53;1.75;;;;;;;;;;5020978;28;20229;-87
2022/01/09 10:07:37;;;;;;;5.10;2.30;;;;;;;;;;5027913;28;20197;-87
2022/01/09 10:10:08;;;;;;;3.53;1.58;;;3.70;99.90;;;;;;5024328;28;20196;-87
2022/01/09 10:12:35;;;;;;;3.33;1.40;;;;;;;;;;5019591;28;20208;-87
2022/01/09 10:15:07;;;;;;;2.50;2.30;;;3.70;99.90;;;;;;5023728;28;20212;-87
2022/01/09 10:17:35;;;;;;;4.50;2.15;;;3.70;99.90;;;;;;5020278;28;20216;-87
2022/01/09 10:20:11;;;;;;;3.20;2.00;;;3.70;99.90;;;;;;5022800;28;20616;-87
2022/01/09 10:22:40;;;;;;;5.32;1.88;;;;;;;;;;5022686;28;20633;-88
2022/01/09 10:25:28;;;;;;;3.25;1.65;;;3.70;99.90;;;;;;5020860;28;20287;-87
2022/01/09 10:28:01;;;;;;;4.70;2.78;;;3.80;99.90;;;;;;5021779;28;20722;-87
2022/01/09 10:30:33;;;;;;;2.75;1.80;;;3.80;99.90;;;;;;5021093;28;20670;-87
2022/01/09 10:33:03;;;;;;;4.85;2.13;;;3.80;99.90;;;;;;5020426;28;20213;-87
2022/01/09 10:35:31;;;;;;;7.38;2.83;;;;;;;;;;5023535;28;20258;-88
2022/01/09 10:38:07;;;;;;;2.55;1.90;;;3.90;99.90;;;;;;5022810;28;20208;-87
2022/01/09 10:40:36;;;;;;;5.85;2.67;;;3.90;99.90;;;;;;5017381;28;20219;-87
2022/01/09 10:43:06;;;;;;;4.18;2.40;;;4.00;99.90;;;;;;5020552;28;20212;-88
2022/01/09 10:45:39;;;;;;;4.70;1.48;;;4.00;99.90;;;;;;5025434;28;20229;-87
2022/01/09 10:48:09;;;;;;;3.50;1.60;;;3.90;99.90;;;;;;5018466;28;20566;-88
2022/01/09 10:50:38;;;;;;;3.65;1.13;;;3.90;99.90;;;;;;5021871;28;20210;-87
2022/01/09 10:53:17;;;;;;;5.53;1.33;;;;;;;;;;5021120;28;20212;-88
2022/01/09 10:55:44;;;;;;;2.53;1.30;;;;;;;;;;5016799;28;20287;-88
2022/01/09 10:58:18;;;;;;;5.07;1.45;;;;;;;;;;5023679;28;20208;-88
2022/01/09 11:00:47;;;;;;;6.90;1.60;;;3.90;99.90;;;;;;5022374;28;20204;-87
2022/01/09 11:03:14;;;;;;;1.42;1.33;;;;;;;;;;5027035;28;20224;-87
2022/01/09 11:05:42;;;;;;;4.15;1.27;;;;;;;;;;5022750;28;20239;-88
2022/01/09 11:08:09;;;;;;;3.72;2.28;;;;;;;;;;5025013;28;20208;-88
2022/01/09 11:10:37;;;;;;;3.95;1.20;;;;;;;;;;5025404;28;20209;-88
2022/01/09 11:13:04;;;;;;;2.13;1.35;;;;;;;;;;5022686;28;20209;-87
2022/01/09 11:15:40;;;;;;;1.88;1.77;;;;;;;;;;5020083;28;20209;-88
2022/01/09 11:18:13;;;;;;;2.50;1.35;;;;;;;;;;5023432;28;20676;-88
2022/01/09 11:20:40;;;;;;;9.43;2.45;;;;;;;;;;5026933;28;20212;-88
2022/01/09 11:23:08;;;;;;;1.95;1.60;;;4.00;99.90;;;;;;5024417;28;20209;-87
2022/01/09 11:25:39;;;;;;;3.30;1.27;;;4.10;99.90;;;;;;5022468;28;20225;-88
2022/01/09 11:28:12;;;;;;;4.32;1.75;;;;;;;;;;5026803;28;20243;-88
2022/01/09 11:30:56;;;;;;;6.88;2.08;;;4.10;99.90;;;;;;5021813;28;20216;-87
2022/01/09 11:33:31;;;;;;;1.77;1.50;;;;;;;;;;5015907;28;20237;-87
2022/01/09 11:36:10;;;;;;;4.82;1.50;;;;;;;;;;5018581;28;20299;-88
2022/01/09 11:38:50;;;;;;;2.13;1.10;;;4.00;99.90;;;;;;5025596;28;20205;-88
2022/01/09 11:41:24;;;;;;;1.90;1.10;;;;;;;;;;5022762;28;20205;-87
2022/01/09 11:44:08;;;;;;;2.58;1.10;;;;;;;;;;5019158;28;20306;-88
2022/01/09 11:46:58;;;;;;;4.63;1.50;;;;;;;;;;5022908;28;20750;-87
2022/01/09 11:49:48;;;;;;;3.25;1.63;;;;;;;;;;5024486;28;20215;-88
2022/01/09 11:52:18;;;;;;;2.78;1.35;;;;;;;;;;5014927;28;21024;-87
2022/01/09 11:54:50;;;;;;;1.20;1.10;;;4.40;99.90;;;;;;5019934;28;20736;-87
2022/01/09 11:57:20;;;;;;;2.30;1.58;;;;;;;;;;5022498;28;20211;-87
2022/01/09 11:59:53;;;;;;;1.58;1.17;;;4.40;99.90;;;;;;5023132;28;20204;-87
2022/01/09 12:02:31;;;;;;;1.98;1.63;;;;;;;;;;5022521;28;20220;-87
2022/01/09 12:05:01;;;;;;;7.13;2.50;;;;;;;;;;5022766;28;20637;-86
2022/01/09 12:08:08;;;;;;;2.38;1.35;;;4.40;99.90;;;;;;5021156;28;20227;-86
2022/01/09 12:10:51;;;;;;;1.20;1.00;;;4.40;99.90;;;;;;5022330;28;20208;-87
2022/01/09 12:13:42;;;;;;;1.77;1.67;;;4.20;99.90;;;;;;5021586;28;20232;-87
2022/01/09 12:16:11;;;;;;;4.40;1.13;;;4.30;99.90;;;;;;5021353;28;20662;-85
2022/01/09 12:18:43;;;;;;;1.67;1.23;;;4.40;99.90;;;;;;5021916;28;20233;-86
2022/01/09 12:21:10;;;;;;;1.70;1.52;;;;;;;;;;5023239;28;20334;-86
2022/01/09 12:23:38;;;;;;;2.05;0.80;;;;;;;;;;5023952;28;20216;-87
2022/01/09 12:26:27;;;;;;;3.80;1.20;;;4.50;99.90;;;;;;5017994;28;20233;-88
2022/01/09 12:28:54;;;;;;;1.33;1.25;;;;;;;;;;5020194;28;20295;-88
2022/01/09 12:31:25;;;;;;;1.67;1.20;;;4.40;99.90;;;;;;5016478;28;20627;-87
2022/01/09 12:33:53;;;;;;;2.90;1.33;;;4.50;99.90;;;;;;5026395;28;20578;-87
2022/01/09 12:36:24;;;;;;;2.90;1.60;;;;;;;;;;5018783;28;20217;-87
2022/01/09 12:38:55;;;;;;;1.30;1.20;;;4.40;99.90;;;;;;5016530;28;20709;-86
2022/01/09 12:41:26;;;;;;;3.35;1.30;;;4.50;99.90;;;;;;5022032;28;20296;-86
2022/01/09 12:43:58;;;;;;;2.47;1.35;;;4.50;99.90;;;;;;5019789;28;20204;-87
2022/01/09 12:46:26;;;;;;;1.48;0.90;;;;;;;;;;5020074;28;20244;-86
2022/01/09 12:48:55;;;;;;;1.58;0.73;;;;;;;;;;5023932;28;20205;-87
2022/01/09 12:51:23;;;;;;;1.00;0.90;;;;;;;;;;5021249;28;20204;-87
2022/01/09 12:53:52;;;;;;;2.83;1.20;;;4.70;99.90;;;;;;5018846;28;20224;-87
2022/01/09 12:56:20;;;;;;;3.70;1.15;;;4.70;99.90;;;;;;5019852;28;20678;-87
2022/01/09 12:58:50;;;;;;;8.88;1.40;;;4.70;99.60;;;;;;5019244;28;20702;-87
2022/01/09 13:01:20;;;;;;;3.92;1.35;;;4.90;99.50;;;;;;5020303;28;20229;-88
2022/01/09 13:03:49;;;;;;;2.45;1.52;;;4.70;99.90;;;;;;5020858;28;20668;-87
2022/01/09 13:06:18;;;;;;;8.02;1.63;;;4.80;99.90;;;;;;5023138;28;20229;-87
2022/01/09 13:08:49;;;;;;;4.18;0.70;;;4.80;99.20;;;;;;5022517;28;20235;-87
2022/01/09 13:11:17;;;;;;;3.22;1.10;;;;;;;;;;5023219;28;20547;-87
2022/01/09 13:13:46;;;;;;;3.10;1.60;;;;;;;;;;5020355;28;20204;-88
2022/01/09 13:16:16;;;;;;;7.43;1.60;;;4.60;99.90;;;;;;5020998;28;20204;-87
2022/01/09 13:18:45;;;;;;;1.77;0.95;;;4.40;99.90;;;;;;5023173;28;20690;-87
2022/01/09 13:21:14;;;;;;;1.52;1.35;;;;;;;;;;5016582;28;20213;-88
2022/01/09 13:24:00;;;;;;;1.63;1.13;;;4.10;99.90;;;;;;5016296;28;20804;-88
2022/01/09 13:26:29;;;;;;;4.55;1.83;;;;;;;;;;5019485;28;20229;-88
2022/01/09 13:28:56;;;;;;;4.45;1.55;;;3.80;99.90;;;;;;5024817;28;20973;-88
2022/01/09 13:31:25;;;;;;;0.95;0.80;;;;;;;;;;5023341;28;20216;-87
2022/01/09 13:33:54;;;;;;;0.80;0.80;;;;;;;;;;5018044;28;20211;-88
2022/01/09 13:36:35;;;;;;;1.77;1.65;;;3.40;99.90;;;;;;5021162;28;20243;-87
2022/01/09 13:39:05;;;;;;;3.08;1.70;;;3.40;99.90;;;;;;5013834;28;20224;-87
2022/01/09 13:41:38;;;;;;;1.05;1.00;;;3.30;99.90;;;;;;5019021;28;20200;-87
2022/01/09 13:44:05;;;;;;;4.60;2.33;;;;;;;;;;5017557;28;20671;-86
2022/01/09 13:46:34;;;;;;;2.50;1.50;;;;;;;;;;5020253;28;20227;-87
2022/01/09 13:49:01;;;;;;;4.00;1.35;;;;;;;;;;5021779;28;20912;-87
2022/01/09 13:51:46;;;;;;;2.85;1.48;;;3.50;99.90;;;;;;5020765;28;20208;-86
2022/01/09 13:54:16;;;;;;;2.65;1.58;;;3.50;99.90;;;;;;5020660;28;20204;-86
2022/01/09 13:56:44;;;;;;;1.35;1.20;;;;;;;;;;5018419;28;20204;-87
2022/01/09 13:59:12;;;;;;;1.85;1.63;;;3.70;99.90;;;;;;5020376;28;20248;-88
2022/01/09 14:01:45;;;;;;;3.45;1.70;;;3.90;99.90;;;;;;5014371;28;20196;-88
2022/01/09 14:04:14;;;;;;;2.95;1.13;;;3.90;99.90;;;;;;5017878;28;20209;-89
2022/01/09 14:06:41;;;;;;;3.63;1.65;;;;;;;;;;5015367;28;20232;-87
2022/01/09 14:09:09;;;;;;;4.30;1.77;;;;;;;;;;5015268;28;20217;-87
2022/01/09 14:11:36;;;;;;;6.65;2.00;;;;;;;;;;5020917;28;20212;-88
2022/01/09 14:14:03;;;;;;;3.55;2.80;;;;;;;;;;5015941;28;20201;-87
2022/01/09 14:16:36;;;;;;;1.73;1.63;;;3.90;99.90;;;;;;5022330;28;20694;-88
2022/01/09 14:19:07;;;;;;;1.25;1.10;;;;;;;;;;5018666;28;20223;-88
2022/01/09 14:21:35;;;;;;;3.63;1.23;;;;;;;;;;5014349;28;20715;-88
2022/01/09 14:24:09;;;;;;;7.78;2.00;;;3.90;99.90;;;;;;5019562;28;20205;-87